createdAt,value
2022-11-02T01:15:43.597Z,11.67
2022-11-02T03:16:36.420Z,12.12
2022-11-02T03:43:42.592Z,12.29
2022-11-02T03:52:20.909Z,12.38
2022-11-02T04:25:51.679Z,12.45
2022-11-02T04:47:57.359Z,12.46
2022-11-02T06:09:49.393Z,12.67
2022-11-02T06:20:08.159Z,12.70
2022-11-02T06:42:11.632Z,12.77
2022-11-02T06:52:51.037Z,12.76
2022-11-02T07:03:09.993Z,12.80
2022-11-02T07:13:23.496Z,12.88
2022-11-02T07:23:29.794Z,13.02
2022-11-02T07:33:55.862Z,13.19
2022-11-02T07:44:24.822Z,13.44
2022-11-02T08:05:02.079Z,13.89
2022-11-02T08:15:07.999Z,14.09
2022-11-02T08:35:27.247Z,14.24
2022-11-02T08:46:25.301Z,14.27
2022-11-02T08:57:55.589Z,14.28
2022-11-02T09:08:35.274Z,14.35
2022-11-02T09:19:25.856Z,14.40
2022-11-02T09:53:57.000Z,14.49
2022-11-02T10:04:58.603Z,14.40
2022-11-02T10:15:56.392Z,14.49
2022-11-02T10:27:47.266Z,14.59
2022-11-02T10:39:41.445Z,14.76
2022-11-02T10:51:08.932Z,14.90
2022-11-02T11:02:27.765Z,14.98
2022-11-02T11:25:51.537Z,15.17
2022-11-02T11:48:18.410Z,15.13
2022-11-02T11:59:01.039Z,15.22
2022-11-02T12:32:56.802Z,15.48
2022-11-02T12:44:17.187Z,15.58
2022-11-02T13:07:02.099Z,15.64
2022-11-02T13:17:52.741Z,15.53
2022-11-02T13:29:00.090Z,15.37
2022-11-02T13:40:20.157Z,15.21
2022-11-02T14:03:06.869Z,14.79
2022-11-02T14:14:08.325Z,14.53
2022-11-02T14:25:08.450Z,14.40
2022-11-02T14:36:14.648Z,14.18
2022-11-02T14:46:33.393Z,13.98
2022-11-02T14:57:22.146Z,13.82
2022-11-02T15:07:44.510Z,13.61
2022-11-02T15:29:26.273Z,12.92
2022-11-02T15:41:00.389Z,12.53
2022-11-02T15:51:50.613Z,12.26
2022-11-02T16:02:41.881Z,11.92
2022-11-02T16:15:26.046Z,11.62
2022-11-02T16:24:54.015Z,11.35
2022-11-02T16:35:01.801Z,11.24
2022-11-02T16:46:02.287Z,11.06
2022-11-02T16:56:50.383Z,10.82
2022-11-02T17:07:27.710Z,10.53
2022-11-02T17:18:32.002Z,10.38
2022-11-02T17:28:44.657Z,10.31
2022-11-02T17:39:03.875Z,10.37
2022-11-02T17:49:30.701Z,10.54
2022-11-02T17:59:43.902Z,10.77
2022-11-02T18:21:08.363Z,11.35
2022-11-02T18:31:19.882Z,11.56
2022-11-02T18:41:47.528Z,11.69
2022-11-02T18:52:17.024Z,11.81
2022-11-02T19:36:46.624Z,12.11
2022-11-02T19:47:24.218Z,12.16
2022-11-02T19:57:38.671Z,12.18
2022-11-02T20:08:26.329Z,12.17
2022-11-02T20:31:39.629Z,12.19
2022-11-02T20:42:15.129Z,12.15
2022-11-02T20:53:12.839Z,12.02
2022-11-02T21:03:27.056Z,11.93
2022-11-02T21:47:04.568Z,11.61
2022-11-02T21:58:39.076Z,11.38
2022-11-02T22:09:53.666Z,11.18
2022-11-02T22:20:49.967Z,11.06
2022-11-02T22:32:12.512Z,11.00
2022-11-02T22:44:47.295Z,11.04
2022-11-02T23:05:00.080Z,11.05
2022-11-02T23:15:40.664Z,11.02
2022-11-02T23:37:02.435Z,10.77
2022-11-02T23:47:17.829Z,10.60
